Time;durP1;ratioP1;P1;durP2;ratioP2;P2;SDS_P1;SDS_P2;PMS_P1;PMS_P2;Temp;Humidity;BMP_temperature;BMP_pressure;BME280_temperature;BME280_humidity;BME280_pressure;Samples;Min_cycle;Max_cycle;Signal;HPM_P1;HPM_P2
2023/12/06 00:00:29;;;;;;;5.33;4.83;;;;;;;20.63;45.09;96827.91;4952092;28;20208;-25
2023/12/06 00:02:57;;;;;;;5.37;4.67;;;;;;;20.63;45.28;96826.19;4939812;28;20235;-26
2023/12/06 00:05:24;;;;;;;5.70;4.30;;;;;;;20.63;45.22;96831.31;4948969;28;20235;-25
2023/12/06 00:07:51;;;;;;;5.20;4.70;;;;;;;20.54;45.47;96809.84;4948321;28;20693;-25
2023/12/06 00:10:17;;;;;;;5.37;4.37;;;;;;;20.62;45.35;96827.03;4952335;28;20278;-26
2023/12/06 00:12:44;;;;;;;5.00;4.43;;;;;;;20.64;45.70;96827.94;4953596;28;20220;-25
2023/12/06 00:15:10;;;;;;;5.27;4.77;;;;;;;20.65;45.20;96823.69;4946517;28;20217;-26
2023/12/06 00:17:37;;;;;;;5.37;4.63;;;;;;;20.64;45.16;96825.41;4948187;28;20613;-25
2023/12/06 00:20:05;;;;;;;5.93;4.53;;;;;;;20.65;45.22;96828.78;4938836;28;20264;-25
2023/12/06 00:22:32;;;;;;;5.00;4.13;;;;;;;20.64;44.98;96827.94;4941598;28;20236;-25
2023/12/06 00:24:58;;;;;;;5.10;4.60;;;;;;;20.63;45.31;96826.19;4946941;28;20295;-26
2023/12/06 00:27:25;;;;;;;5.13;4.50;;;;;;;20.63;45.14;96828.75;4945574;28;20291;-24
2023/12/06 00:29:52;;;;;;;4.80;4.30;;;;;;;20.65;45.28;96829.66;4938779;28;20217;-25
2023/12/06 00:32:18;;;;;;;5.70;4.83;;;;;;;20.65;45.08;96827.09;4942087;28;20279;-25
2023/12/06 00:34:45;;;;;;;5.07;4.40;;;;;;;20.65;45.19;96826.22;4945665;28;20228;-25
2023/12/06 00:37:12;;;;;;;5.47;4.90;;;;;;;20.65;45.24;96824.56;4946933;28;20239;-25
2023/12/06 00:39:40;;;;;;;5.10;4.60;;;;;;;20.65;45.21;96818.56;4937862;28;20205;-25
2023/12/06 00:42:06;;;;;;;4.87;4.27;;;;;;;20.65;45.24;96818.56;4937066;28;20229;-25
2023/12/06 00:44:33;;;;;;;5.20;4.33;;;;;;;20.66;45.44;96820.31;4952420;28;20263;-25
2023/12/06 00:46:59;;;;;;;5.67;4.93;;;;;;;20.65;45.15;96826.22;4939094;28;20220;-26
2023/12/06 00:49:26;;;;;;;5.20;4.70;;;;;;;20.66;45.31;96830.53;4945703;29;20240;-25
2023/12/06 00:51:53;;;;;;;4.73;4.23;;;;;;;20.66;45.33;96823.72;4950219;28;20220;-26
2023/12/06 00:54:19;;;;;;;5.67;4.53;;;;;;;20.66;45.25;96827.97;4948665;28;20690;-25
2023/12/06 00:56:46;;;;;;;4.93;4.07;;;;;;;20.67;45.45;96832.25;4938767;28;20220;-26
2023/12/06 00:59:12;;;;;;;5.27;4.33;;;;;;;20.66;45.48;96833.09;4925374;29;20205;-25
2023/12/06 01:01:39;;;;;;;5.40;4.90;;;;;;;20.65;45.17;96837.31;4940126;28;20260;-24
2023/12/06 01:04:06;;;;;;;4.90;4.40;;;;;;;20.66;45.43;96836.47;4945078;28;20652;-26
2023/12/06 01:06:33;;;;;;;5.37;4.23;;;;;;;20.67;45.14;96838.22;4946379;28;20196;-25
2023/12/06 01:09:00;;;;;;;4.83;4.33;;;;;;;20.67;45.29;96835.69;4944351;28;20209;-25
2023/12/06 01:11:26;;;;;;;4.83;4.30;;;;;;;20.67;45.29;96839.91;4950817;28;20272;-26
2023/12/06 01:13:53;;;;;;;5.97;4.47;;;;;;;20.66;45.37;96835.63;4939981;28;20657;-25
2023/12/06 01:16:20;;;;;;;4.47;4.07;;;;;;;20.67;45.44;96834.81;4939761;28;20774;-25
2023/12/06 01:18:46;;;;;;;4.50;4.00;;;;;;;20.67;45.37;96837.34;4942835;28;20204;-24
2023/12/06 01:21:13;;;;;;;5.40;4.60;;;;;;;20.67;45.22;96842.47;4941918;28;20204;-25
2023/12/06 01:23:40;;;;;;;5.43;4.50;;;;;;;20.67;45.33;96840.78;4945226;28;20220;-25
2023/12/06 01:26:07;;;;;;;8.10;4.27;;;;;;;20.68;45.45;96844.19;4941274;28;20295;-25
2023/12/06 01:28:36;;;;;;;6.53;4.77;;;;;;;20.67;45.47;96840.78;4947175;28;20222;-25
2023/12/06 01:31:03;;;;;;;4.83;4.43;;;;;;;20.68;45.37;96844.19;4951880;28;20220;-26
2023/12/06 01:33:29;;;;;;;6.13;4.60;;;;;;;20.67;45.43;96847.56;4951139;28;20256;-26
2023/12/06 01:35:56;;;;;;;5.03;4.53;;;;;;;20.67;45.38;96845.88;4939076;28;20225;-25
2023/12/06 01:38:22;;;;;;;4.80;4.30;;;;;;;20.67;45.44;96853.53;4952515;28;20768;-25
2023/12/06 01:40:49;;;;;;;4.67;4.13;;;;;;;20.68;45.29;96851.84;4951472;28;20216;-25
2023/12/06 01:43:16;;;;;;;5.43;4.37;;;;;;;20.67;45.37;96845.88;4946832;28;20314;-25
2023/12/06 01:45:42;;;;;;;5.73;4.43;;;;;;;20.68;45.39;96847.59;4941091;28;20302;-25
2023/12/06 01:48:09;;;;;;;4.93;4.07;;;;;;;20.69;45.43;96843.38;4945843;28;20585;-26
2023/12/06 01:50:37;;;;;;;5.20;4.63;;;;;;;20.68;45.25;96844.19;4909767;28;20678;-25
2023/12/06 01:53:04;;;;;;;5.43;4.33;;;;;;;20.68;45.18;96845.03;4948936;28;20224;-24
2023/12/06 01:55:31;;;;;;;4.93;4.37;;;;;;;20.68;45.36;96852.72;4942658;28;20228;-25
2023/12/06 01:57:58;;;;;;;5.83;4.20;;;;;;;20.69;45.38;96854.41;4934747;28;20220;-25
2023/12/06 02:00:25;;;;;;;4.33;3.70;;;;;;;20.67;45.20;96852.66;4944813;28;20681;-25
2023/12/06 02:02:52;;;;;;;4.93;4.20;;;;;;;20.66;45.31;96846.69;4923407;29;20306;-25
2023/12/06 02:05:18;;;;;;;5.47;4.00;;;;;;;20.68;45.18;96852.72;4931619;29;20204;-25
2023/12/06 02:07:45;;;;;;;4.30;3.90;;;;;;;20.68;45.26;96855.25;4925607;29;20247;-26
2023/12/06 02:10:12;;;;;;;4.83;4.00;;;;;;;20.67;45.38;96856.09;4942589;29;20213;-25
2023/12/06 02:12:39;;;;;;;4.53;3.87;;;;;;;20.67;45.38;96855.22;4949270;29;20220;-24
2023/12/06 02:15:06;;;;;;;4.60;4.20;;;;;;;20.59;45.60;96852.50;4951024;29;20264;-25
2023/12/06 02:17:33;;;;;;;4.43;3.77;;;;;;;20.55;45.75;96853.28;4919032;29;20243;-24
2023/12/06 02:20:01;;;;;;;4.83;4.27;;;;;;;20.52;45.63;96860.00;4941154;29;20227;-26
2023/12/06 02:22:27;;;;;;;4.73;4.20;;;;;;;20.50;45.49;96862.50;4924453;29;20336;-25
2023/12/06 02:24:56;;;;;;;4.37;3.90;;;;;;;20.49;45.79;96855.66;4944012;29;20210;-25
2023/12/06 02:27:23;;;;;;;5.47;4.07;;;;;;;20.50;45.66;96859.09;4931029;29;20206;-25
2023/12/06 02:29:50;;;;;;;5.50;4.30;;;;;;;20.50;45.74;96852.31;4946970;29;20200;-25
2023/12/06 02:32:17;;;;;;;4.83;4.33;;;;;;;20.52;45.73;96865.09;4951851;29;20379;-24
2023/12/06 02:34:43;;;;;;;3.87;3.53;;;;;;;20.53;45.55;96856.59;4946509;29;20233;-25
2023/12/06 02:37:11;;;;;;;4.30;3.90;;;;;;;20.54;45.72;96859.19;4911466;29;20354;-25
2023/12/06 02:39:39;;;;;;;4.50;4.10;;;;;;;20.55;45.60;96860.06;4915648;29;20204;-25
2023/12/06 02:42:06;;;;;;;4.27;3.57;;;;;;;20.55;45.69;96858.38;4928695;29;20287;-26
2023/12/06 02:44:32;;;;;;;5.43;3.70;;;;;;;20.55;45.61;96860.06;4942597;29;20554;-26
2023/12/06 02:46:59;;;;;;;4.10;3.70;;;;;;;20.56;45.55;96860.09;4933524;29;20207;-25
2023/12/06 02:49:26;;;;;;;4.90;4.17;;;;;;;20.56;45.54;96859.22;4908509;29;20255;-25
2023/12/06 02:51:52;;;;;;;7.97;3.70;;;;;;;20.58;45.50;96858.44;4945182;29;20219;-25
2023/12/06 02:54:19;;;;;;;4.20;3.80;;;;;;;20.58;45.44;96860.13;4948413;29;20208;-26
2023/12/06 02:56:46;;;;;;;4.93;4.10;;;;;;;20.58;45.42;96855.03;4948125;29;20225;-25
2023/12/06 02:59:12;;;;;;;4.17;3.77;;;;;;;20.58;45.52;96858.44;4938675;29;20209;-26
2023/12/06 03:01:39;;;;;;;3.90;3.50;;;;;;;20.60;45.46;96858.47;4936324;29;20272;-25
2023/12/06 03:04:07;;;;;;;4.33;3.53;;;;;;;20.60;45.20;96861.88;4914840;29;20214;-25
2023/12/06 03:06:34;;;;;;;4.80;4.07;;;;;;;20.62;45.50;96860.22;4950552;29;20208;-25
2023/12/06 03:09:01;;;;;;;4.20;3.47;;;;;;;20.62;45.53;96861.91;4953263;29;20259;-25
2023/12/06 03:11:27;;;;;;;4.07;3.67;;;;;;;20.62;45.42;96862.78;4945202;29;20205;-25
2023/12/06 03:13:54;;;;;;;3.50;3.20;;;;;;;20.64;45.20;96870.47;4952452;29;20641;-26
2023/12/06 03:16:20;;;;;;;4.77;3.90;;;;;;;20.63;45.54;96859.38;4952626;29;20229;-25
2023/12/06 03:18:47;;;;;;;3.63;3.30;;;;;;;20.63;45.29;96861.09;4949629;29;20292;-25
2023/12/06 03:21:14;;;;;;;4.20;3.80;;;;;;;20.64;45.46;96855.16;4943776;28;20208;-25
2023/12/06 03:23:40;;;;;;;4.60;3.60;;;;;;;20.64;45.47;96865.38;4942905;29;20233;-26
2023/12/06 03:26:07;;;;;;;5.30;3.80;;;;;;;20.64;45.32;96861.13;4947430;28;20205;-26
2023/12/06 03:28:34;;;;;;;3.90;3.47;;;;;;;20.65;45.37;96861.97;4948540;28;20296;-26
2023/12/06 03:31:00;;;;;;;3.73;3.30;;;;;;;20.65;45.21;96862.84;4948332;28;20616;-26
2023/12/06 03:33:27;;;;;;;3.20;3.00;;;;;;;20.58;45.53;96861.00;4947363;28;20282;-26
2023/12/06 03:35:54;;;;;;;3.90;3.47;;;;;;;20.53;45.50;96865.13;4953868;28;20283;-25
2023/12/06 03:38:21;;;;;;;3.73;3.33;;;;;;;20.51;45.68;96865.91;4952700;28;20204;-25
2023/12/06 03:40:47;;;;;;;3.23;2.93;;;;;;;20.48;45.57;96871.81;4955078;28;20204;-26
2023/12/06 03:43:14;;;;;;;4.03;3.67;;;;;;;20.48;45.75;96874.38;4952765;28;20236;-24
2023/12/06 03:45:40;;;;;;;3.83;3.37;;;;;;;20.47;45.54;96876.88;4945380;28;20201;-25
2023/12/06 03:48:07;;;;;;;4.27;3.67;;;;;;;20.48;45.85;96868.38;4950169;28;20211;-25
2023/12/06 03:50:34;;;;;;;3.83;3.30;;;;;;;20.50;45.74;96871.84;4944509;28;20301;-25
2023/12/06 03:53:00;;;;;;;3.83;3.37;;;;;;;20.19;45.87;96821.78;4928996;29;20264;-25
2023/12/06 03:55:27;;;;;;;3.47;3.17;;;;;;;20.53;45.83;96874.47;4949992;28;20803;-25
2023/12/06 03:57:54;;;;;;;3.37;2.73;;;;;;;20.54;45.67;96878.75;4953779;28;20206;-26
2023/12/06 04:00:20;;;;;;;3.27;2.93;;;;;;;20.54;45.73;96878.75;4951524;28;20209;-25
2023/12/06 04:02:47;;;;;;;3.53;3.23;;;;;;;20.55;45.50;96867.72;4948130;28;20235;-25
2023/12/06 04:05:14;;;;;;;3.67;3.17;;;;;;;20.49;45.44;96867.56;4949818;28;20642;-25
2023/12/06 04:07:40;;;;;;;3.50;3.10;;;;;;;20.56;45.72;96869.44;4940787;28;20209;-25
2023/12/06 04:10:07;;;;;;;3.33;3.03;;;;;;;20.56;45.44;96866.88;4955315;28;20208;-25
2023/12/06 04:12:34;;;;;;;3.77;3.10;;;;;;;20.57;45.72;96871.19;4953024;28;20242;-25
2023/12/06 04:15:01;;;;;;;3.47;3.10;;;;;;;20.59;45.53;96872.06;4935895;28;20240;-25
2023/12/06 04:17:27;;;;;;;3.83;3.20;;;;;;;20.59;45.63;96875.47;4947133;28;20231;-25
2023/12/06 04:19:54;;;;;;;3.50;3.20;;;;;;;20.59;45.49;96877.16;4943654;28;20216;-25
2023/12/06 04:22:20;;;;;;;3.97;3.30;;;;;;;20.60;45.55;96872.09;4948467;28;20671;-25
2023/12/06 04:24:47;;;;;;;3.20;2.90;;;;;;;20.59;45.61;96880.59;4941078;29;20728;-25
2023/12/06 04:27:13;;;;;;;3.50;3.00;;;;;;;20.61;45.31;96880.63;4947212;28;20201;-25
2023/12/06 04:29:40;;;;;;;3.00;2.70;;;;;;;20.61;45.34;96876.38;4945012;28;20684;-25
2023/12/06 04:32:07;;;;;;;3.67;3.10;;;;;;;20.64;45.42;96879.00;4949951;28;20224;-25
2023/12/06 04:34:35;;;;;;;3.20;2.90;;;;;;;20.63;45.67;96878.97;4949153;28;20208;-24
2023/12/06 04:37:02;;;;;;;3.23;2.93;;;;;;;20.64;45.59;96879.00;4919862;29;20224;-25
2023/12/06 04:39:29;;;;;;;3.10;2.80;;;;;;;20.63;45.56;96879.81;4951994;28;20282;-25
2023/12/06 04:41:55;;;;;;;3.70;3.00;;;;;;;20.64;45.57;96881.56;4943674;28;20300;-26
2023/12/06 04:44:22;;;;;;;3.33;2.80;;;;;;;20.63;45.71;96879.81;4950215;28;20205;-25
2023/12/06 04:46:50;;;;;;;4.77;2.60;;;;;;;20.64;45.48;96883.25;4945237;28;20201;-25
2023/12/06 04:49:16;;;;;;;2.70;2.50;;;;;;;20.57;45.64;96884.78;4948546;28;20212;-25
2023/12/06 04:51:43;;;;;;;3.20;2.63;;;;;;;20.53;45.74;96890.66;4953721;28;20322;-26
2023/12/06 04:54:09;;;;;;;3.30;3.00;;;;;;;20.51;45.76;96897.41;4949928;28;20672;-26
2023/12/06 04:56:36;;;;;;;3.63;2.87;;;;;;;20.49;45.69;96898.22;4947503;28;20220;-25
2023/12/06 04:59:02;;;;;;;4.73;2.93;;;;;;;20.48;45.98;96905.00;4950659;28;20729;-25
2023/12/06 05:01:29;;;;;;;3.30;3.00;;;;;;;20.47;45.68;96892.19;4945144;28;20204;-25
2023/12/06 05:03:56;;;;;;;2.67;2.47;;;;;;;20.49;45.79;96906.69;4949374;28;20212;-25
2023/12/06 05:06:23;;;;;;;2.70;2.50;;;;;;;20.47;45.61;96898.16;4948561;29;20584;-25
2023/12/06 05:08:50;;;;;;;2.90;2.60;;;;;;;20.52;45.86;96904.22;4942389;29;20248;-24
2023/12/06 05:11:16;;;;;;;2.60;2.40;;;;;;;20.53;45.80;96905.97;4951577;29;20204;-25
2023/12/06 05:13:43;;;;;;;3.07;2.77;;;;;;;20.52;45.66;96908.50;4946185;29;20228;-25
2023/12/06 05:16:09;;;;;;;2.77;2.57;;;;;;;20.52;45.83;96906.78;4951918;29;20228;-24
2023/12/06 05:18:36;;;;;;;2.77;2.57;;;;;;;20.54;45.29;96905.13;4950466;29;20208;-25
2023/12/06 05:21:03;;;;;;;2.73;2.53;;;;;;;20.54;45.72;96914.50;4950798;29;20747;-25
2023/12/06 05:23:30;;;;;;;2.60;2.40;;;;;;;20.52;44.14;96916.97;4951507;29;20319;-24
2023/12/06 05:25:56;;;;;;;2.60;2.40;;;;;;;20.48;45.08;96907.53;4943687;28;20204;-25
2023/12/06 05:28:23;;;;;;;3.33;2.93;;;;;;;20.52;45.48;96916.16;4947354;29;20208;-25
2023/12/06 05:30:50;;;;;;;3.30;2.30;;;;;;;20.55;44.79;96909.44;4953558;29;20645;-25
2023/12/06 05:33:16;;;;;;;2.53;2.33;;;;;;;20.56;44.57;96911.16;4940175;29;20234;-25
2023/12/06 05:35:45;;;;;;;2.60;2.40;;;;;;;20.54;44.93;96917.06;4943848;29;20691;-25
2023/12/06 05:38:11;;;;;;;2.63;2.43;;;;;;;20.50;45.22;96915.22;4940199;29;20208;-25
2023/12/06 05:40:38;;;;;;;2.67;2.40;;;;;;;20.47;45.30;96913.47;4950899;29;20204;-25
2023/12/06 05:43:04;;;;;;;3.13;2.37;;;;;;;20.46;45.19;96916.84;4945251;29;20228;-25
2023/12/06 05:45:31;;;;;;;3.23;2.30;;;;;;;20.45;45.26;96907.47;4939743;29;20205;-25
2023/12/06 05:47:58;;;;;;;2.77;2.57;;;;;;;20.46;45.46;96914.28;4950941;29;20247;-24
2023/12/06 05:50:25;;;;;;;2.47;2.20;;;;;;;20.49;45.33;96919.47;4944119;29;20631;-25
2023/12/06 05:52:52;;;;;;;3.23;2.30;;;;;;;20.50;45.26;96911.00;4942733;29;20216;-25
2023/12/06 05:55:19;;;;;;;2.40;2.20;;;;;;;20.52;45.44;96913.59;4940359;29;20406;-25
2023/12/06 05:57:45;;;;;;;2.60;2.40;;;;;;;20.53;45.46;96920.41;4944096;29;20220;-25
2023/12/06 06:00:13;;;;;;;3.03;2.70;;;;;;;20.55;45.46;96916.22;4945327;29;20210;-25
2023/12/06 06:02:41;;;;;;;2.20;2.00;;;;;;;20.48;45.55;96921.97;4947494;29;20718;-25
2023/12/06 06:05:08;;;;;;;2.50;2.30;;;;;;;20.45;45.19;96915.13;4951622;29;20219;-25
2023/12/06 06:07:35;;;;;;;2.33;2.13;;;;;;;20.45;45.02;96917.69;4941259;29;20201;-25
2023/12/06 06:10:02;;;;;;;2.73;2.23;;;;;;;20.43;45.43;96921.03;4949064;29;20706;-25
2023/12/06 06:12:30;;;;;;;2.40;2.20;;;;;;;20.41;41.93;96918.44;4948445;29;20348;-25
2023/12/06 06:14:57;;;;;;;2.60;2.10;;;;;;;20.45;42.04;96922.78;4947725;29;20205;-25
2023/12/06 06:17:24;;;;;;;2.37;2.10;;;;;;;20.46;42.67;96921.94;4944584;29;20220;-25
2023/12/06 06:19:51;;;;;;;2.33;1.97;;;;;;;20.48;41.89;96922.84;4946752;29;20204;-25
2023/12/06 06:22:17;;;;;;;1.90;1.70;;;;;;;20.49;40.74;96928.84;4944376;29;20232;-25
2023/12/06 06:24:44;;;;;;;2.50;2.30;;;;;;;20.49;39.96;96924.56;4942017;29;20200;-26
2023/12/06 06:27:10;;;;;;;2.10;2.00;;;;;;;20.49;39.32;96929.69;4945240;29;20208;-25
2023/12/06 06:29:37;;;;;;;3.40;2.17;;;;;;;20.53;39.97;96935.72;4932300;29;20200;-24
2023/12/06 06:32:04;;;;;;;2.17;2.00;;;;;;;20.52;38.75;96926.34;4950472;29;20220;-25
2023/12/06 06:34:30;;;;;;;2.23;2.07;;;;;;;20.42;39.25;96942.25;4944172;29;20204;-25
2023/12/06 06:36:57;;;;;;;2.10;2.00;;;;;;;20.35;38.38;96932.72;4937741;29;20232;-25
2023/12/06 06:39:24;;;;;;;2.20;2.00;;;;;;;20.32;38.36;96937.75;4942439;29;20213;-25
2023/12/06 06:41:51;;;;;;;2.20;2.00;;;;;;;20.28;38.23;96941.91;4943023;29;20223;-25
2023/12/06 06:44:18;;;;;;;2.77;2.00;;;;;;;20.27;38.53;96934.22;4938120;29;20637;-25
2023/12/06 06:46:45;;;;;;;2.37;2.03;;;;;;;20.29;39.68;96946.22;4942155;29;20196;-25
2023/12/06 06:49:13;;;;;;;2.30;2.10;;;;;;;20.30;40.37;96944.50;4946702;29;20217;-25
2023/12/06 06:51:40;;;;;;;2.50;2.10;;;;;;;20.30;40.82;96940.28;4946687;29;20280;-25
2023/12/06 06:54:07;;;;;;;2.30;1.93;;;;;;;20.31;41.08;96938.59;4945054;29;20196;-25
2023/12/06 06:56:33;;;;;;;2.17;1.97;;;;;;;20.32;41.59;96943.75;4946633;29;20270;-25
2023/12/06 06:59:00;;;;;;;2.57;2.10;;;;;;;20.32;41.48;96936.09;4944363;29;20212;-25
2023/12/06 07:01:27;;;;;;;2.33;1.73;;;;;;;20.34;42.23;96946.34;4939259;29;20239;-25
2023/12/06 07:03:53;;;;;;;2.40;2.20;;;;;;;20.36;42.62;96952.31;4939050;29;20201;-26
2023/12/06 07:06:20;;;;;;;3.60;2.30;;;;;;;20.33;42.42;96947.13;4948038;29;20282;-25
2023/12/06 07:08:47;;;;;;;10.23;3.23;;;;;;;20.28;40.04;96948.72;4941016;29;20201;-26
2023/12/06 07:11:14;;;;;;;4.83;2.90;;;;;;;20.02;39.54;96909.78;4937609;29;20858;-24
2023/12/06 07:13:40;;;;;;;5.47;2.87;;;;;;;20.24;40.14;96950.34;4942869;28;20299;-24
2023/12/06 07:16:07;;;;;;;2.93;2.50;;;;;;;20.23;41.15;96955.41;4946258;28;20267;-25
2023/12/06 07:18:34;;;;;;;7.67;2.90;;;;;;;20.24;41.20;96959.66;4942587;28;20234;-25
2023/12/06 07:21:01;;;;;;;3.93;2.50;;;;;;;20.25;41.67;96958.84;4941395;28;20404;-24
2023/12/06 07:23:27;;;;;;;2.77;2.57;;;;;;;20.26;41.87;96960.56;4937428;28;20338;-25
2023/12/06 07:25:54;;;;;;;3.03;2.73;;;;;;;20.27;42.13;96963.16;4948798;28;20204;-25
2023/12/06 07:28:21;;;;;;;2.97;2.40;;;;;;;20.29;42.54;96961.53;4944392;28;20251;-25
2023/12/06 07:30:48;;;;;;;4.57;2.40;;;;;;;20.30;42.55;96968.34;4946006;28;20248;-25
2023/12/06 07:33:14;;;;;;;3.73;2.40;;;;;;;20.31;42.60;96967.50;4945784;28;20232;-25
2023/12/06 07:35:41;;;;;;;3.03;2.30;;;;;;;20.32;42.80;96976.91;4943586;28;20664;-25
2023/12/06 07:38:10;;;;;;;2.13;1.97;;;;;;;20.34;42.51;96976.94;4945472;28;20224;-24
2023/12/06 07:40:37;;;;;;;2.43;2.10;;;;;;;20.35;43.19;96971.88;4944908;28;20575;-26
2023/12/06 07:43:04;;;;;;;3.30;2.00;;;;;;;20.32;43.14;96976.03;4945303;28;20235;-25
2023/12/06 07:45:30;;;;;;;2.30;2.10;;;;;;;20.31;43.07;96974.31;4944532;28;20209;-25
2023/12/06 07:47:57;;;;;;;2.50;1.80;;;;;;;20.30;43.38;96980.22;4944574;28;20263;-25
2023/12/06 07:50:25;;;;;;;2.57;2.37;;;;;;;20.29;42.91;96981.06;4945892;28;20256;-25
2023/12/06 07:52:52;;;;;;;2.40;2.20;;;;;;;20.30;43.47;96982.78;4949465;28;20252;-25
2023/12/06 07:55:18;;;;;;;2.17;1.87;;;;;;;20.31;43.26;96984.53;4948682;28;20251;-25
2023/12/06 07:57:49;;;;;;;2.27;2.07;;;;;;;20.32;43.98;96979.47;4946177;28;20227;-26
2023/12/06 08:00:17;;;;;;;2.70;2.30;;;;;;;20.32;43.38;96982.03;4947200;28;20671;-25
2023/12/06 08:02:44;;;;;;;2.43;2.20;;;;;;;20.33;43.68;96981.19;4947139;28;20830;-25
2023/12/06 08:05:11;;;;;;;2.43;2.23;;;;;;;20.37;43.34;96992.34;4943956;28;20763;-24
2023/12/06 08:07:38;;;;;;;2.50;2.30;;;;;;;20.39;42.37;96993.22;4951677;28;20208;-25
2023/12/06 08:10:09;;;;;;;4.77;3.47;;;;;;;20.42;40.71;96994.16;4944663;29;20208;-23
2023/12/06 08:12:37;;;;;;;5.70;3.80;;;;;;;20.42;39.81;96989.06;4944298;29;20235;-25
2023/12/06 08:15:07;;;;;;;6.27;3.70;;;;;;;20.42;40.59;96991.63;4945670;29;20694;-25
2023/12/06 08:17:33;;;;;;;5.57;3.30;;;;;;;20.41;41.06;96992.47;4945151;28;20223;-26
2023/12/06 08:20:00;;;;;;;4.50;2.90;;;;;;;20.34;41.52;96995.66;4949782;28;20212;-26
2023/12/06 08:22:27;;;;;;;5.10;3.20;;;;;;;20.32;41.78;96991.34;4950158;28;20322;-25
2023/12/06 08:24:57;;;;;;;4.47;2.90;;;;;;;20.29;41.79;96989.59;4944339;28;20259;-25
2023/12/06 08:27:32;;;;;;;5.13;3.37;;;;;;;20.28;42.22;96995.50;4942116;28;20213;-25
2023/12/06 08:29:59;;;;;;;3.53;2.70;;;;;;;20.30;42.27;97003.19;4945620;28;20581;-25
2023/12/06 08:32:26;;;;;;;4.10;2.60;;;;;;;20.31;42.56;97010.88;4947062;28;20315;-23
2023/12/06 08:34:53;;;;;;;3.40;2.77;;;;;;;20.33;42.61;97011.81;4943460;28;20212;-24
2023/12/06 08:37:20;;;;;;;3.37;2.93;;;;;;;20.34;42.99;97016.06;4947383;28;20220;-25
2023/12/06 08:39:47;;;;;;;3.50;2.70;;;;;;;20.36;42.95;97016.09;4946499;28;20208;-25
2023/12/06 08:42:17;;;;;;;3.53;2.80;;;;;;;20.38;42.93;97022.13;4943073;28;20228;-24
2023/12/06 08:44:43;;;;;;;3.60;2.73;;;;;;;20.39;42.47;97017.06;4942667;28;20205;-25
2023/12/06 08:47:14;;;;;;;4.40;3.17;;;;;;;20.33;40.09;97005.81;4942312;29;20799;-25
2023/12/06 08:49:40;;;;;;;6.37;3.77;;;;;;;20.43;40.06;97023.13;4949183;28;20671;-24
2023/12/06 08:52:07;;;;;;;4.97;3.13;;;;;;;20.41;40.66;97025.63;4947714;29;20319;-25
2023/12/06 08:54:34;;;;;;;5.27;3.07;;;;;;;20.41;40.98;97024.75;4946674;28;20219;-26
2023/12/06 08:57:01;;;;;;;6.00;3.37;;;;;;;20.41;41.25;97027.31;4939759;28;20227;-24
2023/12/06 08:59:29;;;;;;;6.87;2.93;;;;;;;20.40;41.50;97029.00;4941147;28;20732;-25
2023/12/06 09:01:56;;;;;;;3.80;3.10;;;;;;;20.40;41.77;97034.09;4927865;28;20228;-25
2023/12/06 09:04:22;;;;;;;4.53;3.13;;;;;;;20.40;42.13;97033.25;4944919;28;20216;-25
2023/12/06 09:06:49;;;;;;;7.50;3.00;;;;;;;20.04;41.93;96968.47;4945445;28;20208;-23
2023/12/06 09:09:18;;;;;;;5.63;2.93;;;;;;;20.43;42.07;97036.72;4947136;28;20217;-25
2023/12/06 09:11:45;;;;;;;6.33;3.30;;;;;;;20.43;42.17;97033.34;4944366;28;20228;-25
2023/12/06 09:14:15;;;;;;;6.73;3.13;;;;;;;20.46;42.28;97038.50;4945839;28;20322;-25
2023/12/06 09:16:42;;;;;;;3.77;2.70;;;;;;;20.47;42.44;97041.09;4941905;28;20200;-25
2023/12/06 09:19:08;;;;;;;2.80;2.50;;;;;;;20.47;42.07;97041.09;4943604;28;20224;-25
2023/12/06 09:21:43;;;;;;;2.87;2.57;;;;;;;20.48;42.64;97035.16;4940864;28;20237;-24
2023/12/06 09:24:10;;;;;;;4.70;2.60;;;;;;;20.50;42.53;97033.53;4944203;28;20361;-25
2023/12/06 09:26:37;;;;;;;4.07;2.73;;;;;;;20.51;42.50;97042.03;4947299;28;20297;-25
2023/12/06 09:29:08;;;;;;;4.20;2.80;;;;;;;20.51;42.84;97045.47;4941280;28;20204;-25
2023/12/06 09:31:35;;;;;;;6.23;2.60;;;;;;;20.52;42.79;97047.16;4944116;28;20232;-25
2023/12/06 09:34:02;;;;;;;5.07;2.80;;;;;;;20.53;42.88;97046.38;4945790;28;20244;-24
2023/12/06 09:36:29;;;;;;;3.30;2.47;;;;;;;20.54;42.96;97044.69;4943134;28;20205;-24
2023/12/06 09:38:59;;;;;;;4.10;2.50;;;;;;;20.49;42.99;97046.25;4944123;28;20228;-25
2023/12/06 09:41:29;;;;;;;4.33;2.67;;;;;;;20.42;43.01;97049.44;4945079;28;20256;-25
2023/12/06 09:43:56;;;;;;;4.13;2.50;;;;;;;20.43;43.04;97058.84;4949013;28;20216;-25
2023/12/06 09:46:23;;;;;;;2.53;2.23;;;;;;;20.41;43.14;97058.81;4934963;29;20231;-24
2023/12/06 09:48:49;;;;;;;3.13;2.13;;;;;;;20.43;43.13;97056.31;4942666;28;20231;-25
2023/12/06 09:51:17;;;;;;;5.80;2.40;;;;;;;20.43;43.32;97049.50;4935328;29;20589;-25
2023/12/06 09:53:44;;;;;;;4.80;2.27;;;;;;;20.46;43.18;97048.72;4944530;28;20204;-25
2023/12/06 09:56:11;;;;;;;4.27;2.30;;;;;;;20.46;43.28;97057.22;4942252;29;20209;-23
2023/12/06 09:58:37;;;;;;;2.80;2.57;;;;;;;20.48;43.16;97050.47;4936644;28;20243;-24
2023/12/06 10:01:04;;;;;;;4.20;2.60;;;;;;;20.47;43.25;97056.41;4936825;29;20205;-25
2023/12/06 10:03:31;;;;;;;3.00;2.57;;;;;;;20.48;43.33;97052.16;4941882;28;20224;-25
2023/12/06 10:06:00;;;;;;;3.73;2.50;;;;;;;20.42;42.99;97045.22;4941552;29;20272;-24
2023/12/06 10:08:27;;;;;;;3.17;2.20;;;;;;;20.49;43.32;97059.00;4929714;28;20204;-25
2023/12/06 10:11:04;;;;;;;2.20;2.00;;;;;;;20.50;43.31;97061.59;4943256;29;20706;-25
2023/12/06 10:13:34;;;;;;;4.50;2.30;;;;;;;20.51;43.25;97053.09;4941092;28;20295;-25
2023/12/06 10:16:01;;;;;;;4.93;2.30;;;;;;;20.52;43.22;97048.88;4943891;29;20611;-25
2023/12/06 10:18:28;;;;;;;2.57;2.27;;;;;;;20.53;43.68;97053.16;4942927;28;20232;-25
2023/12/06 10:20:56;;;;;;;3.70;2.40;;;;;;;20.53;43.85;97043.81;4939289;29;20231;-25
2023/12/06 10:23:22;;;;;;;2.23;2.03;;;;;;;20.54;43.31;97050.63;4926542;29;20287;-25
2023/12/06 10:25:50;;;;;;;2.93;2.33;;;;;;;20.56;43.25;97043.91;4943313;28;20204;-24
2023/12/06 10:28:19;;;;;;;2.37;2.17;;;;;;;20.56;43.41;97043.00;4937477;29;20251;-25
2023/12/06 10:30:46;;;;;;;4.13;2.10;;;;;;;20.57;43.24;97049.88;4939965;28;20235;-24
2023/12/06 10:33:14;;;;;;;2.63;2.00;;;;;;;20.58;43.10;97047.34;4941805;29;20228;-23
2023/12/06 10:35:41;;;;;;;3.10;2.40;;;;;;;20.57;43.38;97043.06;4930111;29;20204;-24
2023/12/06 10:38:08;;;;;;;2.13;1.93;;;;;;;20.49;43.46;97041.16;4937841;29;20716;-25
2023/12/06 10:40:35;;;;;;;3.80;2.43;;;;;;;20.48;43.47;97041.94;4916145;29;20672;-25
2023/12/06 10:43:06;;;;;;;2.20;2.00;;;;;;;20.47;43.47;97047.88;4942704;29;20233;-26
2023/12/06 10:45:32;;;;;;;2.50;2.10;;;;;;;20.42;43.61;97034.13;4942988;28;20208;-25
2023/12/06 10:47:59;;;;;;;2.67;2.20;;;;;;;20.46;43.65;97041.91;4924825;29;20270;-24
2023/12/06 10:50:26;;;;;;;3.50;1.80;;;;;;;20.49;43.51;97041.16;4930309;29;20253;-25
2023/12/06 10:52:53;;;;;;;4.43;1.90;;;;;;;20.48;43.68;97036.84;4943272;29;20684;-24
2023/12/06 10:55:19;;;;;;;4.23;2.20;;;;;;;20.51;43.61;97044.59;4915667;29;20683;-25
2023/12/06 10:57:46;;;;;;;2.60;2.23;;;;;;;20.51;43.76;97044.59;4928796;29;20220;-25
2023/12/06 11:00:14;;;;;;;3.13;2.00;;;;;;;20.50;43.68;97038.63;4943000;28;20204;-24
2023/12/06 11:02:40;;;;;;;5.13;2.17;;;;;;;20.50;43.64;97045.41;4925788;29;20287;-23
2023/12/06 11:05:10;;;;;;;2.20;2.00;;;;;;;20.51;43.80;97037.78;4926216;29;20212;-25
2023/12/06 11:08:05;;;;;;;3.87;2.00;;;;;;;20.54;43.77;97042.13;4941538;29;20244;-25
2023/12/06 11:10:50;;;;;;;2.43;2.20;;;;;;;20.56;43.83;97040.47;4929087;29;20203;-25
2023/12/06 11:13:23;;;;;;;3.33;1.90;;;;;;;20.55;42.27;97037.06;4942404;29;20709;-25
2023/12/06 11:16:07;;;;;;;2.53;1.90;;;;;;;20.56;42.70;97040.47;4946478;28;20211;-25
2023/12/06 11:18:45;;;;;;;2.33;1.80;;;;;;;20.56;42.98;97038.78;4923801;29;20809;-24
2023/12/06 11:21:12;;;;;;;2.37;2.10;;;;;;;20.54;43.16;97027.66;4932359;29;20235;-24
2023/12/06 11:23:40;;;;;;;2.00;1.80;;;;;;;20.59;43.34;97028.66;4926122;29;20220;-25
2023/12/06 11:26:07;;;;;;;2.50;1.80;;;;;;;20.59;43.39;97033.75;4915041;29;20205;-23
2023/12/06 11:28:40;;;;;;;2.17;1.97;;;;;;;20.61;43.43;97031.25;4930063;29;20617;-24
2023/12/06 11:31:16;;;;;;;2.07;1.87;;;;;;;20.63;43.28;97039.81;4948634;28;20703;-26
2023/12/06 11:33:55;;;;;;;2.10;1.90;;;;;;;20.65;43.61;97038.13;4946698;28;20207;-26